Time;durP1;ratioP1;P1;durP2;ratioP2;P2;SDS_P1;SDS_P2;PMS_P1;PMS_P2;Temp;Humidity;BMP_temperature;BMP_pressure;BME280_temperature;BME280_humidity;BME280_pressure;Samples;Min_cycle;Max_cycle;Signal;HPM_P1;HPM_P2
2023/12/20 00:00:14;;;;;;;687.85;636.22;;;5.30;99.90;;;;;;6302871;22;20023;-81
2023/12/20 00:02:40;;;;;;;660.15;610.80;;;5.30;99.90;;;;;;6331158;22;20019;-81
2023/12/20 00:05:06;;;;;;;673.22;623.15;;;5.30;99.90;;;;;;6277310;22;20053;-81
2023/12/20 00:07:32;;;;;;;692.50;640.17;;;5.20;99.90;;;;;;6303834;22;20029;-81
2023/12/20 00:09:57;;;;;;;671.60;620.97;;;5.10;99.90;;;;;;6303025;22;20019;-81
2023/12/20 00:12:23;;;;;;;640.38;593.25;;;5.30;99.90;;;;;;6331989;22;20133;-81
2023/12/20 00:14:49;;;;;;;683.25;632.55;;;5.10;99.90;;;;;;6303580;22;20422;-81
2023/12/20 00:17:14;;;;;;;650.38;602.03;;;5.00;99.90;;;;;;6330647;22;20079;-82
2023/12/20 00:19:40;;;;;;;701.97;649.20;;;5.00;99.90;;;;;;6302639;22;20477;-81
2023/12/20 00:22:06;;;;;;;698.45;645.55;;;5.00;99.90;;;;;;6304358;22;20065;-81
2023/12/20 00:24:31;;;;;;;687.63;636.63;;;4.90;99.90;;;;;;6301483;22;20122;-81
2023/12/20 00:26:57;;;;;;;686.60;635.42;;;5.00;99.90;;;;;;6332505;22;20015;-81
2023/12/20 00:29:23;;;;;;;697.47;644.30;;;5.00;99.90;;;;;;6331633;22;20015;-81
2023/12/20 00:31:48;;;;;;;678.20;627.60;;;4.90;99.90;;;;;;6302547;22;20313;-82
2023/12/20 00:34:14;;;;;;;675.05;624.92;;;4.90;99.90;;;;;;6303685;22;20033;-81
2023/12/20 00:36:40;;;;;;;656.08;607.30;;;4.90;99.90;;;;;;6302258;22;20174;-81
2023/12/20 00:39:06;;;;;;;725.72;669.92;;;4.90;99.90;;;;;;6303115;22;20018;-81
2023/12/20 00:41:32;;;;;;;755.95;696.92;;;4.90;99.90;;;;;;6303173;22;20019;-81
2023/12/20 00:43:58;;;;;;;719.47;664.83;;;4.90;99.90;;;;;;6331619;22;20326;-81
2023/12/20 00:46:23;;;;;;;767.63;707.38;;;4.90;99.90;;;;;;6302379;22;20019;-81
2023/12/20 00:48:49;;;;;;;792.53;730.45;;;5.00;99.90;;;;;;6303343;22;20037;-81
2023/12/20 00:51:15;;;;;;;835.75;768.25;;;5.00;99.90;;;;;;6331071;22;20007;-81
2023/12/20 00:53:40;;;;;;;756.47;698.03;;;5.10;99.90;;;;;;6330769;22;20022;-80
2023/12/20 00:56:06;;;;;;;730.47;674.90;;;5.10;99.90;;;;;;6277508;22;20804;-81
2023/12/20 00:58:32;;;;;;;725.25;670.25;;;5.30;99.90;;;;;;6297558;22;20027;-81
2023/12/20 01:00:58;;;;;;;752.17;694.67;;;5.30;99.90;;;;;;6297091;22;20057;-80
2023/12/20 01:03:24;;;;;;;726.60;671.28;;;5.30;99.90;;;;;;6272910;22;20069;-81
2023/12/20 01:05:49;;;;;;;706.42;652.83;;;5.30;99.90;;;;;;6297807;22;20088;-81
2023/12/20 01:08:15;;;;;;;669.00;619.15;;;5.30;99.90;;;;;;6297299;22;20086;-81
2023/12/20 01:10:41;;;;;;;667.25;617.60;;;5.30;99.90;;;;;;6298682;22;20019;-81
2023/12/20 01:13:06;;;;;;;763.83;704.85;;;5.30;99.90;;;;;;6297168;22;20366;-81
2023/12/20 01:15:32;;;;;;;679.97;629.38;;;5.30;99.90;;;;;;6297809;22;20053;-81
2023/12/20 01:17:59;;;;;;;708.40;654.50;;;5.30;99.90;;;;;;6272957;22;20023;-81
2023/12/20 01:20:25;;;;;;;679.05;628.28;;;5.40;99.90;;;;;;6295687;22;20302;-81
2023/12/20 01:22:51;;;;;;;710.95;657.35;;;5.50;99.90;;;;;;6300959;22;20007;-81
2023/12/20 01:25:16;;;;;;;706.72;653.13;;;5.40;99.90;;;;;;6297410;22;20058;-80
2023/12/20 01:27:42;;;;;;;729.88;673.30;;;5.30;99.90;;;;;;6297382;22;20444;-81
2023/12/20 01:30:08;;;;;;;708.47;655.30;;;5.30;99.90;;;;;;6298298;22;20034;-81
2023/12/20 01:32:34;;;;;;;749.95;692.00;;;5.30;99.90;;;;;;6297615;22;20026;-80
2023/12/20 01:35:00;;;;;;;743.05;685.25;;;5.30;99.90;;;;;;6271012;22;20015;-81
2023/12/20 01:37:26;;;;;;;895.88;816.80;;;5.30;99.90;;;;;;6297321;22;20015;-81
2023/12/20 01:39:52;;;;;;;828.42;762.30;;;5.40;99.90;;;;;;6298614;22;20483;-81
2023/12/20 01:42:18;;;;;;;830.70;763.58;;;5.50;99.90;;;;;;6297368;22;20050;-81
2023/12/20 01:44:44;;;;;;;902.63;822.63;;;5.60;99.90;;;;;;6297502;22;20474;-81
2023/12/20 01:47:10;;;;;;;796.47;734.05;;;5.70;99.90;;;;;;6300205;22;20043;-81
2023/12/20 01:49:35;;;;;;;912.47;830.75;;;5.70;99.90;;;;;;6297591;22;20284;-81
2023/12/20 01:52:01;;;;;;;770.28;708.03;;;5.80;99.90;;;;;;6272579;22;20022;-81
2023/12/20 01:54:27;;;;;;;806.35;739.95;;;5.80;99.90;;;;;;6298584;22;20481;-81
2023/12/20 01:56:53;;;;;;;779.08;716.22;;;5.80;99.90;;;;;;6301159;22;20017;-81
2023/12/20 01:59:21;;;;;;;721.15;663.42;;;5.80;99.90;;;;;;6300164;22;20046;-81
2023/12/20 02:01:47;;;;;;;682.67;631.70;;;6.00;99.90;;;;;;6299313;22;20030;-81
2023/12/20 02:04:13;;;;;;;698.63;644.90;;;5.70;99.90;;;;;;6299094;22;20023;-80
2023/12/20 02:06:40;;;;;;;647.75;599.55;;;5.70;99.90;;;;;;6298629;22;20030;-81
2023/12/20 02:09:07;;;;;;;759.88;700.20;;;5.70;99.90;;;;;;6274528;22;20112;-81
2023/12/20 02:11:35;;;;;;;739.83;682.05;;;5.70;99.90;;;;;;6300922;22;20387;-81
2023/12/20 02:14:01;;;;;;;697.78;644.75;;;5.70;99.90;;;;;;6299661;22;20030;-81
2023/12/20 02:16:27;;;;;;;768.22;707.25;;;5.80;99.90;;;;;;6272284;22;20018;-82
2023/12/20 02:18:53;;;;;;;679.22;628.00;;;5.80;99.90;;;;;;6299696;22;20161;-82
2023/12/20 02:21:31;;;;;;;710.35;656.03;;;5.80;99.90;;;;;;6272932;22;20317;-81
2023/12/20 02:23:57;;;;;;;666.08;616.63;;;5.80;99.90;;;;;;6299016;22;20054;-82
2023/12/20 02:26:23;;;;;;;724.63;667.63;;;5.70;99.90;;;;;;6273602;22;20100;-81
2023/12/20 02:28:48;;;;;;;652.42;603.85;;;5.70;99.90;;;;;;6299341;22;20027;-82
2023/12/20 02:31:14;;;;;;;711.25;656.25;;;5.70;99.90;;;;;;6298453;22;20043;-82
2023/12/20 02:33:42;;;;;;;680.90;629.45;;;5.70;99.90;;;;;;6299144;22;20015;-82
2023/12/20 02:36:07;;;;;;;691.92;639.70;;;5.60;99.90;;;;;;6299219;22;20011;-81
2023/12/20 02:38:34;;;;;;;658.33;609.45;;;5.60;99.90;;;;;;6298591;22;20087;-81
2023/12/20 02:40:59;;;;;;;666.67;616.80;;;5.60;99.90;;;;;;6299110;22;20455;-82
2023/12/20 02:43:25;;;;;;;735.63;678.03;;;5.50;99.90;;;;;;6273951;22;20058;-81
2023/12/20 02:45:51;;;;;;;731.92;675.80;;;5.60;99.90;;;;;;6298719;22;20031;-82
2023/12/20 02:48:17;;;;;;;792.38;729.08;;;5.60;99.90;;;;;;6299135;22;20046;-81
2023/12/20 02:50:43;;;;;;;824.35;756.83;;;5.70;99.90;;;;;;6273134;22;20140;-81
2023/12/20 02:53:09;;;;;;;812.40;744.72;;;5.70;99.90;;;;;;6298046;22;20431;-82
2023/12/20 02:55:34;;;;;;;747.40;689.42;;;5.80;99.90;;;;;;6299106;22;20054;-82
2023/12/20 02:58:00;;;;;;;718.60;662.97;;;5.80;99.90;;;;;;6302081;22;20051;-82
2023/12/20 03:00:26;;;;;;;710.35;655.80;;;5.80;99.90;;;;;;6277329;22;20092;-82
2023/12/20 03:02:51;;;;;;;719.55;664.35;;;5.80;99.90;;;;;;6332491;22;20050;-82
2023/12/20 03:05:17;;;;;;;734.58;676.28;;;5.80;99.90;;;;;;6302236;22;20029;-82
2023/12/20 03:07:43;;;;;;;682.10;629.78;;;6.00;99.90;;;;;;6303603;22;20022;-81
2023/12/20 03:10:09;;;;;;;723.15;667.53;;;5.80;99.90;;;;;;6303978;22;20383;-82
2023/12/20 03:12:35;;;;;;;700.33;647.20;;;5.70;99.90;;;;;;6331839;22;20399;-80
2023/12/20 03:15:00;;;;;;;704.80;650.47;;;5.70;99.90;;;;;;6304599;22;20443;-81
2023/12/20 03:17:26;;;;;;;725.33;668.97;;;5.60;99.90;;;;;;6303730;22;20022;-81
2023/12/20 03:19:52;;;;;;;741.25;683.55;;;6.00;99.90;;;;;;6277273;22;20023;-81
2023/12/20 03:22:17;;;;;;;777.47;715.58;;;5.60;99.90;;;;;;6304240;22;20068;-82
2023/12/20 03:24:43;;;;;;;743.03;685.25;;;5.60;99.90;;;;;;6331922;22;20175;-82
2023/12/20 03:27:09;;;;;;;835.20;765.35;;;5.60;99.90;;;;;;6303209;22;20616;-82
2023/12/20 03:29:34;;;;;;;784.83;722.45;;;5.80;99.90;;;;;;6303547;22;20402;-81
2023/12/20 03:32:00;;;;;;;763.83;703.55;;;5.90;99.90;;;;;;6332512;22;20427;-81
2023/12/20 03:34:26;;;;;;;774.65;713.53;;;5.90;99.90;;;;;;6277020;22;20098;-81
2023/12/20 03:36:52;;;;;;;724.55;669.40;;;6.00;99.90;;;;;;6303996;22;20011;-82
2023/12/20 03:39:18;;;;;;;694.38;640.60;;;6.10;99.90;;;;;;6304229;22;20076;-82
2023/12/20 03:41:44;;;;;;;701.28;647.13;;;6.10;99.90;;;;;;6330196;22;20098;-82
2023/12/20 03:44:09;;;;;;;748.15;688.45;;;6.10;99.90;;;;;;6304177;22;20014;-81
2023/12/20 03:46:35;;;;;;;737.00;679.70;;;6.00;99.90;;;;;;6332000;22;20020;-82
2023/12/20 03:49:00;;;;;;;743.95;686.20;;;6.00;99.90;;;;;;6303303;22;20089;-81
2023/12/20 03:51:26;;;;;;;778.33;716.90;;;6.00;99.90;;;;;;6276735;22;20042;-81
2023/12/20 03:53:52;;;;;;;725.70;669.53;;;6.00;99.90;;;;;;6304111;22;20026;-82
2023/12/20 03:56:17;;;;;;;674.55;622.70;;;6.00;99.90;;;;;;6302761;22;20072;-81
2023/12/20 03:58:43;;;;;;;732.88;675.72;;;5.90;99.90;;;;;;6298721;22;20084;-82
2023/12/20 04:01:12;;;;;;;757.55;697.00;;;5.90;99.90;;;;;;6272186;22;20161;-82
2023/12/20 04:03:38;;;;;;;770.15;708.50;;;5.90;99.90;;;;;;6298017;22;20023;-81
2023/12/20 04:06:04;;;;;;;735.72;677.10;;;6.00;99.90;;;;;;6297540;22;20023;-82
2023/12/20 04:08:30;;;;;;;711.10;656.00;;;6.00;99.90;;;;;;6273046;22;20015;-81
2023/12/20 04:10:55;;;;;;;716.45;661.58;;;6.00;99.90;;;;;;6297556;22;20022;-81
2023/12/20 04:13:21;;;;;;;676.97;626.03;;;6.00;99.90;;;;;;6298623;22;20047;-81
2023/12/20 04:15:47;;;;;;;741.47;683.80;;;6.00;99.90;;;;;;6300397;22;20026;-81
2023/12/20 04:18:13;;;;;;;771.05;710.42;;;6.00;99.90;;;;;;6297101;22;20015;-81
2023/12/20 04:20:39;;;;;;;697.35;643.63;;;5.90;99.90;;;;;;6299754;22;20397;-81
2023/12/20 04:23:05;;;;;;;715.38;660.60;;;5.80;99.90;;;;;;6300339;22;20014;-81
2023/12/20 04:25:30;;;;;;;717.95;661.78;;;5.80;99.90;;;;;;6297779;22;20061;-81
2023/12/20 04:27:56;;;;;;;725.83;669.35;;;5.90;99.90;;;;;;6299107;22;20019;-82
2023/12/20 04:30:22;;;;;;;733.85;677.30;;;5.90;99.90;;;;;;6298828;22;20031;-81
2023/12/20 04:32:47;;;;;;;806.22;740.33;;;6.00;99.90;;;;;;6300440;22;20305;-81
2023/12/20 04:35:13;;;;;;;795.55;730.70;;;6.00;99.90;;;;;;6296895;22;20026;-81
2023/12/20 04:37:39;;;;;;;758.08;698.22;;;6.00;99.90;;;;;;6296870;22;20378;-81
2023/12/20 04:40:05;;;;;;;691.58;638.22;;;6.10;99.90;;;;;;6297616;22;20027;-81
2023/12/20 04:42:31;;;;;;;704.58;650.38;;;6.10;99.90;;;;;;6271918;22;20336;-81
2023/12/20 04:44:56;;;;;;;780.67;719.15;;;6.20;99.90;;;;;;6297550;22;20084;-81
2023/12/20 04:47:22;;;;;;;768.83;708.05;;;6.20;99.90;;;;;;6298501;22;20038;-81
2023/12/20 04:49:48;;;;;;;714.03;659.63;;;6.40;99.90;;;;;;6296755;22;20129;-82
2023/12/20 04:52:14;;;;;;;677.72;626.10;;;6.30;99.90;;;;;;6297716;22;20499;-81
2023/12/20 04:54:40;;;;;;;756.63;697.35;;;6.30;99.90;;;;;;6297710;22;20026;-81
2023/12/20 04:57:05;;;;;;;673.00;621.80;;;6.30;99.90;;;;;;6299232;22;20038;-81
2023/12/20 04:59:31;;;;;;;740.67;683.35;;;6.40;99.90;;;;;;6296780;22;20642;-81
2023/12/20 05:01:57;;;;;;;658.17;608.28;;;6.40;99.90;;;;;;6272626;22;20046;-81
2023/12/20 05:04:23;;;;;;;695.83;642.92;;;6.40;99.90;;;;;;6272403;22;20034;-81
2023/12/20 05:06:49;;;;;;;702.97;648.97;;;6.50;99.90;;;;;;6270412;22;20019;-81
2023/12/20 05:09:16;;;;;;;710.17;653.22;;;6.50;99.90;;;;;;6298461;22;20031;-81
2023/12/20 05:11:41;;;;;;;716.83;660.17;;;6.50;99.90;;;;;;6272585;22;20019;-81
2023/12/20 05:14:07;;;;;;;643.97;594.88;;;6.60;99.90;;;;;;6297477;22;20019;-81
2023/12/20 05:16:33;;;;;;;673.65;622.00;;;6.70;99.90;;;;;;6297959;22;20023;-81
2023/12/20 05:19:00;;;;;;;703.33;647.85;;;6.60;99.90;;;;;;6272436;22;20019;-81
2023/12/20 05:21:26;;;;;;;660.92;609.75;;;6.60;99.90;;;;;;6296177;22;20328;-81
2023/12/20 05:23:52;;;;;;;720.63;663.30;;;6.70;99.90;;;;;;6298027;22;20278;-81
2023/12/20 05:26:17;;;;;;;695.60;642.53;;;6.70;99.90;;;;;;6299153;22;20011;-81
2023/12/20 05:28:44;;;;;;;698.42;643.47;;;6.70;99.90;;;;;;6301000;22;20428;-81
2023/12/20 05:31:09;;;;;;;720.33;663.25;;;6.70;99.90;;;;;;6299737;22;20027;-81
2023/12/20 05:33:35;;;;;;;702.67;646.20;;;6.70;99.90;;;;;;6299125;22;20011;-81
2023/12/20 05:36:01;;;;;;;713.45;657.50;;;6.70;99.90;;;;;;6299275;22;20023;-82
2023/12/20 05:38:26;;;;;;;668.97;617.75;;;6.70;99.90;;;;;;6299587;22;20019;-81
2023/12/20 05:40:52;;;;;;;714.50;659.33;;;6.70;99.90;;;;;;6299453;22;20053;-81
2023/12/20 05:43:18;;;;;;;718.67;661.38;;;6.70;99.90;;;;;;6299351;22;20015;-81
2023/12/20 05:45:43;;;;;;;679.63;627.55;;;6.70;99.90;;;;;;6274245;22;20384;-81
2023/12/20 05:48:09;;;;;;;659.47;609.92;;;6.80;99.90;;;;;;6299250;22;20454;-81
2023/12/20 05:50:35;;;;;;;672.20;619.17;;;6.80;99.90;;;;;;6300749;22;20043;-81
2023/12/20 05:53:01;;;;;;;699.85;645.40;;;6.80;99.90;;;;;;6300798;22;20491;-81
2023/12/20 05:55:26;;;;;;;627.33;578.72;;;6.80;99.90;;;;;;6297888;22;20021;-81
2023/12/20 05:57:52;;;;;;;663.70;613.40;;;6.80;99.90;;;;;;6301080;22;20033;-81
2023/12/20 06:00:18;;;;;;;659.50;609.15;;;6.80;99.90;;;;;;6304793;22;20015;-81
2023/12/20 06:02:44;;;;;;;675.08;623.00;;;6.80;99.90;;;;;;6304156;22;20424;-81
2023/12/20 06:05:09;;;;;;;667.65;616.65;;;6.80;99.90;;;;;;6303559;22;20434;-81
2023/12/20 06:07:35;;;;;;;695.45;641.13;;;6.80;99.90;;;;;;6304636;22;20015;-82
2023/12/20 06:10:01;;;;;;;687.40;633.78;;;6.80;99.90;;;;;;6304155;22;20046;-81
2023/12/20 06:12:28;;;;;;;666.42;616.30;;;6.80;99.90;;;;;;6332851;22;20075;-81
2023/12/20 06:14:54;;;;;;;756.53;695.70;;;6.80;99.90;;;;;;6304745;22;20015;-81
2023/12/20 06:17:20;;;;;;;664.25;613.50;;;6.90;99.90;;;;;;6304190;22;20368;-81
2023/12/20 06:19:48;;;;;;;688.90;635.70;;;6.90;99.90;;;;;;6277609;22;20026;-81
2023/12/20 06:22:14;;;;;;;700.20;645.33;;;6.90;99.90;;;;;;6304756;22;20011;-81
2023/12/20 06:24:40;;;;;;;663.65;613.80;;;6.90;99.90;;;;;;6303333;22;20023;-81
2023/12/20 06:27:06;;;;;;;647.58;597.95;;;7.00;99.90;;;;;;6304774;22;20022;-81
2023/12/20 06:29:31;;;;;;;696.72;642.08;;;7.00;99.90;;;;;;6303107;22;20022;-81
2023/12/20 06:31:57;;;;;;;819.05;749.05;;;7.00;99.90;;;;;;6278744;22;20034;-81
2023/12/20 06:34:23;;;;;;;704.83;650.35;;;7.00;99.90;;;;;;6304713;22;20018;-81
2023/12/20 06:36:48;;;;;;;761.42;699.67;;;7.00;99.90;;;;;;6302239;22;20015;-81
2023/12/20 06:39:14;;;;;;;779.67;715.92;;;7.00;99.90;;;;;;6304674;22;20401;-81
2023/12/20 06:41:40;;;;;;;790.97;726.17;;;7.00;99.90;;;;;;6330521;22;20022;-81
2023/12/20 06:44:06;;;;;;;883.08;802.45;;;7.00;99.90;;;;;;6303493;22;20431;-81
2023/12/20 06:46:31;;;;;;;788.55;724.17;;;7.00;99.90;;;;;;6331920;22;20042;-82
2023/12/20 06:48:57;;;;;;;746.25;687.67;;;7.00;99.90;;;;;;6279196;22;20376;-81
2023/12/20 06:51:25;;;;;;;872.15;795.50;;;7.10;99.90;;;;;;6329920;22;20018;-81
2023/12/20 06:53:52;;;;;;;796.65;730.28;;;7.10;99.90;;;;;;6333124;22;20160;-81
2023/12/20 06:56:17;;;;;;;828.72;758.40;;;7.10;99.90;;;;;;6331456;22;20011;-82
2023/12/20 06:58:43;;;;;;;719.13;662.55;;;7.10;99.90;;;;;;6303593;22;20088;-81
2023/12/20 07:01:14;;;;;;;719.38;663.03;;;7.10;99.90;;;;;;6303282;22;20015;-81
2023/12/20 07:03:40;;;;;;;688.75;636.30;;;7.20;99.90;;;;;;6304632;22;20015;-82
2023/12/20 07:06:06;;;;;;;791.90;726.63;;;7.20;99.90;;;;;;6276545;22;20023;-82
2023/12/20 07:08:32;;;;;;;808.08;741.45;;;7.20;99.90;;;;;;6303872;22;20465;-82
2023/12/20 07:10:58;;;;;;;614.28;568.28;;;7.30;99.90;;;;;;6307045;22;20019;-81
2023/12/20 07:13:23;;;;;;;669.08;617.72;;;7.30;99.90;;;;;;6328589;22;20015;-82
2023/12/20 07:15:49;;;;;;;688.90;634.55;;;7.30;99.90;;;;;;6302147;22;20026;-82
2023/12/20 07:18:15;;;;;;;737.08;678.67;;;7.30;99.90;;;;;;6277436;22;20015;-82
2023/12/20 07:20:40;;;;;;;663.97;612.67;;;7.30;99.90;;;;;;6302244;22;20019;-82
2023/12/20 07:23:06;;;;;;;698.03;643.22;;;7.40;99.90;;;;;;6279204;22;20019;-82
2023/12/20 07:25:32;;;;;;;650.65;600.90;;;7.40;99.90;;;;;;6303034;22;20043;-82
2023/12/20 07:27:58;;;;;;;609.90;564.03;;;7.40;99.90;;;;;;6303881;22;20018;-82
2023/12/20 07:30:24;;;;;;;622.45;575.85;;;7.40;99.90;;;;;;6303563;22;20015;-82
2023/12/20 07:32:50;;;;;;;709.30;652.35;;;7.40;99.90;;;;;;6303265;22;20163;-82
2023/12/20 07:35:16;;;;;;;596.42;551.05;;;7.40;99.90;;;;;;6302983;22;20019;-82
2023/12/20 07:37:42;;;;;;;597.25;552.13;;;7.40;99.90;;;;;;6303762;22;20011;-82
2023/12/20 07:40:08;;;;;;;632.38;583.70;;;7.50;99.90;;;;;;6277137;22;20122;-82
2023/12/20 07:42:33;;;;;;;564.60;522.38;;;7.50;99.90;;;;;;6331440;22;20082;-81
2023/12/20 07:44:59;;;;;;;677.72;624.55;;;7.40;99.90;;;;;;6304174;22;20380;-82
2023/12/20 07:47:25;;;;;;;623.30;574.50;;;7.50;99.90;;;;;;6277732;22;20022;-84
2023/12/20 07:49:51;;;;;;;593.65;547.80;;;7.60;99.90;;;;;;6302771;22;20015;-83
2023/12/20 07:52:18;;;;;;;604.08;557.97;;;7.60;99.90;;;;;;6303032;22;20015;-82
2023/12/20 07:54:45;;;;;;;541.53;501.42;;;7.60;99.90;;;;;;6302010;22;20015;-82
2023/12/20 07:57:11;;;;;;;587.38;543.88;;;7.60;99.90;;;;;;6304200;22;20010;-81
2023/12/20 07:59:37;;;;;;;599.40;554.13;;;7.60;99.90;;;;;;6331246;22;20057;-82
2023/12/20 08:02:02;;;;;;;610.38;563.63;;;7.60;99.90;;;;;;6303050;22;20335;-82
2023/12/20 08:04:28;;;;;;;511.70;474.92;;;7.60;99.90;;;;;;6330766;22;20019;-81
2023/12/20 08:06:54;;;;;;;570.83;527.97;;;7.60;99.90;;;;;;6303409;22;20454;-81
2023/12/20 08:09:20;;;;;;;538.03;499.10;;;7.60;99.90;;;;;;6276855;22;20022;-81
2023/12/20 08:11:47;;;;;;;597.25;552.33;;;7.60;99.90;;;;;;6331752;22;20090;-82
2023/12/20 08:14:13;;;;;;;643.13;592.10;;;7.80;99.90;;;;;;6303380;22;20025;-82
2023/12/20 08:16:39;;;;;;;584.35;540.17;;;7.60;99.90;;;;;;6302690;22;20042;-82
2023/12/20 08:19:05;;;;;;;644.60;594.50;;;7.60;99.90;;;;;;6303320;22;20026;-82
2023/12/20 08:21:30;;;;;;;545.63;506.40;;;7.70;99.90;;;;;;6276383;22;20030;-82
2023/12/20 08:23:56;;;;;;;648.00;595.92;;;7.70;99.90;;;;;;6302983;22;20015;-82
2023/12/20 08:26:23;;;;;;;579.13;535.33;;;7.70;99.90;;;;;;6302869;22;20021;-83
2023/12/20 08:28:48;;;;;;;591.17;546.55;;;7.70;99.90;;;;;;6277804;22;20022;-83
2023/12/20 08:31:16;;;;;;;492.40;457.80;;;7.80;99.90;;;;;;6301824;22;20023;-82
2023/12/20 08:33:45;;;;;;;542.45;501.38;;;7.80;99.90;;;;;;6304059;22;20079;-81
2023/12/20 08:36:11;;;;;;;538.90;499.10;;;7.80;99.90;;;;;;6300542;22;20021;-86
2023/12/20 08:38:37;;;;;;;504.13;467.63;;;7.90;99.90;;;;;;6304233;22;20050;-82
2023/12/20 08:41:05;;;;;;;746.38;659.67;;;7.90;99.90;;;;;;6331566;22;20049;-82
2023/12/20 08:43:31;;;;;;;209.38;196.52;;;7.40;99.90;;;;;;6301946;22;20022;-83
2023/12/20 08:45:57;;;;;;;338.23;314.73;;;7.10;99.90;;;;;;6304347;22;20015;-82
2023/12/20 08:48:23;;;;;;;388.35;362.40;;;6.70;99.90;;;;;;6302691;22;20396;-83
2023/12/20 08:50:50;;;;;;;491.25;455.20;;;6.50;99.90;;;;;;6276375;22;20022;-82
2023/12/20 08:53:16;;;;;;;613.33;564.10;;;6.20;99.90;;;;;;6303248;22;20050;-83
2023/12/20 08:55:42;;;;;;;539.42;502.13;;;6.10;99.90;;;;;;6331131;22;20034;-82
2023/12/20 08:58:08;;;;;;;611.58;567.60;;;5.90;99.90;;;;;;6330543;22;20443;-82
2023/12/20 09:00:34;;;;;;;713.88;660.38;;;5.80;99.90;;;;;;6302551;22;20335;-82
2023/12/20 09:03:01;;;;;;;677.90;628.28;;;6.20;99.90;;;;;;6277965;22;20026;-82
2023/12/20 09:05:27;;;;;;;740.10;684.00;;;5.70;99.90;;;;;;6302469;22;20022;-82
2023/12/20 09:07:53;;;;;;;709.67;655.55;;;5.70;99.90;;;;;;6306311;22;20023;-82
2023/12/20 09:10:22;;;;;;;720.35;666.17;;;5.60;99.90;;;;;;6279683;22;20265;-82
2023/12/20 09:12:50;;;;;;;727.50;672.30;;;5.70;99.90;;;;;;6304507;22;20462;-82
2023/12/20 09:15:16;;;;;;;754.28;696.35;;;5.60;99.90;;;;;;6279652;22;20019;-81
2023/12/20 09:17:43;;;;;;;719.78;665.78;;;5.60;99.90;;;;;;6304719;22;20618;-82
2023/12/20 09:20:09;;;;;;;760.28;700.92;;;5.60;99.90;;;;;;6331227;22;20029;-82
2023/12/20 09:22:35;;;;;;;762.97;704.13;;;5.60;99.90;;;;;;6305223;22;20026;-83
2023/12/20 09:25:02;;;;;;;755.35;697.33;;;5.70;99.90;;;;;;6305228;22;20335;-82
2023/12/20 09:27:28;;;;;;;767.85;708.08;;;5.70;99.90;;;;;;6303930;22;20374;-80
2023/12/20 09:29:53;;;;;;;744.03;686.65;;;5.70;99.90;;;;;;6304875;22;20027;-81
2023/12/20 09:32:20;;;;;;;699.13;647.20;;;5.80;99.90;;;;;;6304628;22;20018;-82
2023/12/20 09:34:47;;;;;;;756.15;696.42;;;5.80;99.90;;;;;;6303671;22;20022;-81
2023/12/20 09:37:13;;;;;;;712.17;658.67;;;5.80;99.90;;;;;;6305302;22;20026;-82
2023/12/20 09:39:39;;;;;;;711.83;658.65;;;5.80;99.90;;;;;;6303630;22;20693;-82
2023/12/20 09:42:06;;;;;;;697.85;645.00;;;5.80;99.90;;;;;;6334019;22;20011;-82
2023/12/20 09:44:42;;;;;;;673.45;623.55;;;5.80;99.90;;;;;;6303976;22;20068;-82
2023/12/20 09:47:08;;;;;;;557.63;518.03;;;5.80;99.90;;;;;;6304123;22;20018;-83
2023/12/20 09:49:35;;;;;;;647.83;598.28;;;5.90;99.90;;;;;;6303487;22;20050;-82
2023/12/20 09:52:01;;;;;;;550.25;511.08;;;5.90;99.90;;;;;;6305381;22;20018;-82
2023/12/20 09:54:28;;;;;;;568.38;527.65;;;5.90;99.90;;;;;;6303709;22;20102;-82
2023/12/20 09:56:54;;;;;;;533.40;495.20;;;6.00;99.90;;;;;;6305110;22;20015;-82
2023/12/20 09:59:20;;;;;;;475.90;443.77;;;6.00;99.90;;;;;;6300093;22;20054;-82
2023/12/20 10:01:46;;;;;;;519.35;481.38;;;6.00;99.90;;;;;;6298079;22;20053;-82
2023/12/20 10:04:13;;;;;;;388.85;364.00;;;6.10;99.90;;;;;;6299771;22;20011;-82
2023/12/20 10:06:41;;;;;;;475.13;442.42;;;6.10;99.90;;;;;;6299959;22;20092;-82
2023/12/20 10:09:07;;;;;;;478.42;444.38;;;6.10;99.90;;;;;;6273484;22;20135;-82
2023/12/20 10:11:35;;;;;;;508.13;473.70;;;6.10;99.90;;;;;;6299192;22;20030;-82
2023/12/20 10:14:03;;;;;;;428.50;400.25;;;6.20;99.90;;;;;;6300194;22;20444;-82
2023/12/20 10:16:30;;;;;;;535.55;497.38;;;6.20;99.90;;;;;;6272685;22;20015;-82
2023/12/20 10:18:56;;;;;;;527.53;490.88;;;6.40;99.90;;;;;;6299567;22;20046;-82
2023/12/20 10:21:24;;;;;;;639.38;586.47;;;6.40;99.90;;;;;;6298418;22;20023;-82
2023/12/20 10:23:50;;;;;;;449.30;419.17;;;6.50;99.90;;;;;;6300173;22;20387;-81
2023/12/20 10:26:21;;;;;;;454.45;423.83;;;6.60;99.90;;;;;;6299921;22;20076;-82
2023/12/20 10:28:49;;;;;;;524.55;487.42;;;6.60;99.90;;;;;;6297908;22;20076;-82
2023/12/20 10:31:33;;;;;;;435.05;405.90;;;6.60;99.90;;;;;;6301343;22;20019;-82
2023/12/20 10:34:00;;;;;;;399.75;373.90;;;6.70;99.90;;;;;;6300363;22;20107;-82
2023/12/20 10:36:27;;;;;;;435.45;406.13;;;6.80;99.90;;;;;;6296672;22;20038;-82
2023/12/20 10:38:55;;;;;;;470.08;436.00;;;6.80;99.90;;;;;;6299835;22;20019;-81
2023/12/20 10:41:27;;;;;;;424.90;396.73;;;6.90;99.90;;;;;;6272928;22;20083;-83
2023/12/20 10:44:01;;;;;;;416.25;388.63;;;6.90;99.90;;;;;;6298842;22;20023;-83
2023/12/20 10:46:29;;;;;;;407.08;380.73;;;6.90;99.90;;;;;;6298877;22;20021;-83
2023/12/20 10:48:56;;;;;;;337.38;315.92;;;6.80;99.90;;;;;;6299906;22;20019;-82
2023/12/20 10:51:24;;;;;;;332.80;312.13;;;6.80;99.90;;;;;;6271374;22;20448;-82
2023/12/20 10:53:53;;;;;;;382.88;358.23;;;6.80;99.90;;;;;;6299559;22;20012;-82
2023/12/20 10:56:20;;;;;;;344.17;321.58;;;6.70;99.90;;;;;;6300759;22;20011;-82
2023/12/20 10:58:48;;;;;;;413.13;384.85;;;6.70;99.90;;;;;;6272542;22;20080;-83
2023/12/20 11:01:15;;;;;;;359.33;336.42;;;6.70;99.90;;;;;;6298366;22;20066;-82
2023/12/20 11:03:48;;;;;;;394.42;368.67;;;6.70;99.90;;;;;;6301471;22;20335;-83
2023/12/20 11:06:19;;;;;;;;;;;6.70;99.90;;;;;;6298720;22;20019;-82
2023/12/20 11:08:54;;;;;;;355.45;332.60;;;6.80;99.90;;;;;;6272734;22;19945;-82
2023/12/20 11:11:33;;;;;;;386.25;360.60;;;6.80;99.90;;;;;;6299982;22;20401;-84
2023/12/20 11:13:58;;;;;;;354.10;331.55;;;6.80;99.90;;;;;;6299207;22;20015;-83
2023/12/20 11:16:25;;;;;;;332.35;310.92;;;6.80;99.90;;;;;;6298326;22;20325;-85
2023/12/20 11:18:51;;;;;;;336.20;313.98;;;6.90;99.90;;;;;;6298237;22;20081;-84
2023/12/20 11:21:17;;;;;;;352.95;330.33;;;6.90;99.90;;;;;;6299663;22;20489;-84
2023/12/20 11:23:43;;;;;;;362.35;338.58;;;6.90;99.90;;;;;;6272666;22;20019;-84
2023/12/20 11:26:09;;;;;;;366.90;343.05;;;6.90;99.90;;;;;;6272616;22;20089;-84
2023/12/20 11:28:35;;;;;;;376.33;352.00;;;6.90;99.90;;;;;;6298384;22;20015;-84
2023/12/20 11:31:02;;;;;;;325.77;304.20;;;6.90;99.90;;;;;;6299064;22;20344;-84
2023/12/20 11:33:38;;;;;;;345.40;322.35;;;6.90;99.90;;;;;;6297531;22;20035;-84
2023/12/20 11:36:13;;;;;;;351.35;327.65;;;6.90;99.90;;;;;;6298057;22;20094;-84
2023/12/20 11:38:49;;;;;;;339.73;317.73;;;6.90;99.90;;;;;;6298851;22;20316;-83
2023/12/20 11:41:15;;;;;;;355.20;331.52;;;6.90;99.90;;;;;;6270831;22;20103;-84
2023/12/20 11:43:41;;;;;;;340.77;317.92;;;7.00;99.90;;;;;;6298588;22;20023;-84
2023/12/20 11:46:10;;;;;;;383.40;358.40;;;7.10;99.90;;;;;;6271800;22;20045;-85
2023/12/20 11:48:37;;;;;;;348.52;325.85;;;7.10;99.90;;;;;;6298856;22;20022;-84
2023/12/20 11:51:10;;;;;;;389.00;362.58;;;7.20;99.90;;;;;;6272579;22;20027;-84
2023/12/20 11:53:36;;;;;;;342.48;320.08;;;7.20;99.90;;;;;;6297868;22;20019;-84
2023/12/20 11:56:03;;;;;;;352.40;328.17;;;7.20;99.90;;;;;;6298561;22;20019;-84
2023/12/20 11:58:30;;;;;;;338.33;315.83;;;7.20;99.90;;;;;;6272765;22;20016;-85
2023/12/20 12:00:56;;;;;;;327.65;305.48;;;7.20;99.90;;;;;;6298837;22;20088;-84
2023/12/20 12:03:23;;;;;;;357.98;333.63;;;7.20;99.90;;;;;;6298555;22;20447;-83
2023/12/20 12:05:50;;;;;;;335.63;314.48;;;7.20;99.90;;;;;;6271933;22;20782;-82
2023/12/20 12:08:16;;;;;;;343.63;321.45;;;7.20;99.90;;;;;;6297638;22;20407;-82
2023/12/20 12:10:43;;;;;;;334.05;312.25;;;7.20;99.90;;;;;;6298651;22;20390;-82
2023/12/20 12:13:09;;;;;;;381.15;356.00;;;7.10;99.90;;;;;;6300952;22;20062;-83